createdAt,value
2019-04-16T00:01:34.915Z,100250.31
2019-04-16T00:05:48.053Z,100241.93
2019-04-16T00:10:06.203Z,100234.44
2019-04-16T00:14:31.730Z,100238.16
2019-04-16T00:18:38.424Z,100236.94
2019-04-16T00:22:52.013Z,100232.72
2019-04-16T00:26:59.994Z,100230.77
2019-04-16T00:31:07.010Z,100228.94
2019-04-16T00:35:15.768Z,100228.88
2019-04-16T00:39:24.809Z,100227.58
2019-04-16T00:43:30.824Z,100227.81
2019-04-16T00:47:37.657Z,100224.80
2019-04-16T00:51:44.413Z,100222.23
2019-04-16T00:55:51.173Z,100219.41
2019-04-16T00:59:58.125Z,100225.70
2019-04-16T01:04:05.542Z,100221.89
2019-04-16T01:08:12.786Z,100222.86
2019-04-16T01:12:19.623Z,100223.95
2019-04-16T01:16:26.504Z,100226.87
2019-04-16T01:20:34.677Z,100227.48
2019-04-16T01:24:41.449Z,100226.14
2019-04-16T01:29:07.130Z,100216.59
2019-04-16T01:33:19.994Z,100217.22
2019-04-16T01:38:00.757Z,100209.68
2019-04-16T01:42:07.592Z,100200.95
2019-04-16T01:46:14.336Z,100206.48
2019-04-16T01:50:21.067Z,100206.80
2019-04-16T01:54:27.858Z,100205.75
2019-04-16T01:58:34.910Z,100197.56
2019-04-16T02:02:43.538Z,100200.27
2019-04-16T02:06:50.938Z,100198.06
2019-04-16T02:10:58.186Z,100195.95
2019-04-16T02:15:07.512Z,100197.34
2019-04-16T02:19:14.633Z,100193.31
2019-04-16T02:23:21.561Z,100185.40
2019-04-16T02:27:29.681Z,100190.46
2019-04-16T02:31:36.444Z,100189.77
2019-04-16T02:35:43.298Z,100189.45
2019-04-16T02:39:50.293Z,100189.58
2019-04-16T02:43:57.339Z,100185.66
2019-04-16T02:48:05.516Z,100188.92
2019-04-16T02:52:37.066Z,100183.14
2019-04-16T02:57:01.437Z,100191.58
2019-04-16T03:01:25.797Z,100180.66
2019-04-16T03:05:35.211Z,100175.79
2019-04-16T03:09:42.204Z,100169.09
2019-04-16T03:13:49.315Z,100164.16
2019-04-16T03:17:56.115Z,100168.34
2019-04-16T03:22:03.355Z,100162.33
2019-04-16T03:26:16.375Z,100164.17
2019-04-16T03:30:19.957Z,100155.09
2019-04-16T03:34:26.711Z,100154.98
2019-04-16T03:38:36.754Z,100158.94
2019-04-16T03:42:41.890Z,100150.38
2019-04-16T03:46:48.675Z,100144.61
2019-04-16T03:50:55.358Z,100145.42
2019-04-16T03:55:02.236Z,100140.59
2019-04-16T03:59:11.825Z,100150.19
2019-04-16T04:03:17.458Z,100140.00
2019-04-16T04:07:24.185Z,100137.11
2019-04-16T04:11:31.887Z,100143.70
2019-04-16T04:15:38.638Z,100139.46
2019-04-16T04:19:46.132Z,100130.94
2019-04-16T04:23:53.590Z,100134.56
2019-04-16T04:28:00.303Z,100134.56
2019-04-16T04:32:07.060Z,100132.25
2019-04-16T04:36:13.810Z,100134.58
2019-04-16T04:40:20.506Z,100131.63
2019-04-16T04:44:36.935Z,100137.51
2019-04-16T04:48:42.588Z,100140.19
2019-04-16T04:52:53.534Z,100144.42
2019-04-16T04:57:03.373Z,100156.44
2019-04-16T05:01:13.357Z,100148.55
2019-04-16T05:05:30.726Z,100161.70
2019-04-16T05:09:37.513Z,100151.36
2019-04-16T05:13:44.496Z,100162.43
2019-04-16T05:17:51.229Z,100169.22
2019-04-16T05:21:58.001Z,100172.48
2019-04-16T05:26:05.395Z,100175.29
2019-04-16T05:30:12.351Z,100190.41
2019-04-16T05:34:19.055Z,100187.95
2019-04-16T05:38:25.775Z,100182.64
2019-04-16T05:42:32.539Z,100185.63
2019-04-16T05:46:41.378Z,100189.55
2019-04-16T05:50:47.797Z,100196.45
2019-04-16T05:55:17.962Z,100202.92
2019-04-16T05:59:22.774Z,100205.75
2019-04-16T06:03:29.477Z,100196.91
2019-04-16T06:07:37.979Z,100211.31
2019-04-16T06:11:44.743Z,100205.61
2019-04-16T06:16:01.816Z,100214.34
2019-04-16T06:20:27.492Z,100205.30
2019-04-16T06:24:51.459Z,100214.78
2019-04-16T06:29:11.532Z,100202.78
2019-04-16T06:33:22.495Z,100218.17
2019-04-16T06:37:35.067Z,100215.97
2019-04-16T06:42:01.064Z,100211.05
2019-04-16T06:46:33.827Z,100221.36
2019-04-16T06:51:02.403Z,100222.31
2019-04-16T06:55:28.923Z,100219.25
2019-04-16T06:59:59.499Z,100223.91
2019-04-16T07:04:30.923Z,100221.47
2019-04-16T07:08:59.598Z,100223.04
2019-04-16T07:13:10.247Z,100224.65
2019-04-16T07:17:17.309Z,100222.95
2019-04-16T07:21:23.315Z,100213.89
2019-04-16T07:25:30.524Z,100215.83
2019-04-16T07:30:04.891Z,100221.22
2019-04-16T07:34:27.387Z,100218.88
2019-04-16T07:38:50.063Z,100219.18
2019-04-16T07:43:30.948Z,100210.09
2019-04-16T07:48:09.717Z,100215.29
2019-04-16T07:52:35.900Z,100205.25
2019-04-16T07:56:44.901Z,100204.20
2019-04-16T08:00:51.783Z,100199.08
2019-04-16T08:04:58.574Z,100194.31
2019-04-16T08:09:07.490Z,100200.45
2019-04-16T08:13:19.325Z,100185.33
2019-04-16T08:17:26.191Z,100192.35
2019-04-16T08:21:32.911Z,100193.54
2019-04-16T08:25:39.643Z,100200.16
2019-04-16T08:29:46.759Z,100185.23
2019-04-16T08:33:54.519Z,100178.91
2019-04-16T08:38:01.730Z,100180.62
2019-04-16T08:42:08.569Z,100175.02
2019-04-16T08:46:15.401Z,100175.15
2019-04-16T08:50:25.888Z,100179.20
2019-04-16T08:54:31.722Z,100187.27
2019-04-16T08:58:39.140Z,100193.94
2019-04-16T09:02:46.000Z,100197.19
2019-04-16T09:06:52.668Z,100196.19
2019-04-16T09:11:00.256Z,100189.09
2019-04-16T09:15:09.968Z,100186.88
2019-04-16T09:19:17.774Z,100186.15
2019-04-16T09:23:26.588Z,100183.45
2019-04-16T09:27:45.039Z,100179.19
2019-04-16T09:32:04.272Z,100179.17
2019-04-16T09:36:42.042Z,100178.58
2019-04-16T09:41:07.649Z,100178.28
2019-04-16T09:45:18.406Z,100186.83
2019-04-16T09:49:26.172Z,100173.74
2019-04-16T09:53:34.530Z,100170.88
2019-04-16T09:57:41.302Z,100166.14
2019-04-16T10:01:50.962Z,100158.67
2019-04-16T10:05:57.756Z,100159.51
2019-04-16T10:10:05.277Z,100149.77
2019-04-16T10:14:12.086Z,100150.11
2019-04-16T10:18:18.860Z,100151.59
2019-04-16T10:22:25.594Z,100153.30
2019-04-16T10:26:32.328Z,100147.62
2019-04-16T10:30:46.859Z,100145.87
2019-04-16T10:34:54.261Z,100147.63
2019-04-16T10:39:20.006Z,100140.78
2019-04-16T10:44:00.849Z,100123.32
2019-04-16T10:48:23.200Z,100128.45
2019-04-16T10:52:47.961Z,100123.49
2019-04-16T10:57:25.848Z,100117.88
2019-04-16T11:01:39.536Z,100112.69
2019-04-16T11:05:56.865Z,100120.56
2019-04-16T11:09:59.990Z,100106.08
2019-04-16T11:14:06.809Z,100115.67
2019-04-16T11:18:14.570Z,100110.26
2019-04-16T11:22:21.307Z,100107.93
2019-04-16T11:26:28.100Z,100108.95
2019-04-16T11:30:40.934Z,100103.00
2019-04-16T11:34:48.636Z,100103.87
2019-04-16T11:38:55.373Z,100099.86
2019-04-16T11:43:03.838Z,100115.44
2019-04-16T11:47:10.811Z,100105.95
2019-04-16T11:51:17.711Z,100101.98
2019-04-16T11:55:24.408Z,100109.83
2019-04-16T11:59:31.186Z,100097.44
2019-04-16T12:03:49.403Z,100099.11
2019-04-16T12:08:18.943Z,100100.05
2019-04-16T12:12:52.838Z,100097.92
2019-04-16T12:17:18.688Z,100103.94
2019-04-16T12:21:53.345Z,100112.39
2019-04-16T12:26:20.463Z,100107.56
2019-04-16T12:30:55.118Z,100105.32
2019-04-16T12:35:26.653Z,100107.73
2019-04-16T12:39:45.693Z,100111.27
2019-04-16T12:43:58.298Z,100104.13
2019-04-16T12:48:14.392Z,100111.54
2019-04-16T12:52:40.076Z,100101.17
2019-04-16T12:57:17.586Z,100102.53
2019-04-16T13:01:43.296Z,100101.69
2019-04-16T13:06:12.247Z,100097.19
2019-04-16T13:10:44.334Z,100084.48
2019-04-16T13:15:13.515Z,100091.47
2019-04-16T13:19:45.284Z,100084.83
2019-04-16T13:23:58.643Z,100095.41
2019-04-16T13:28:05.703Z,100083.70
2019-04-16T13:32:13.567Z,100083.02
2019-04-16T13:36:20.214Z,100093.99
2019-04-16T13:40:27.827Z,100079.12
2019-04-16T13:44:40.691Z,100078.72
2019-04-16T13:48:52.098Z,100081.63
2019-04-16T13:53:07.384Z,100086.70
2019-04-16T13:57:16.960Z,100068.45
2019-04-16T14:01:26.566Z,100072.98
2019-04-16T14:05:37.549Z,100079.02
2019-04-16T14:09:44.259Z,100083.94
2019-04-16T14:13:50.402Z,100074.87
2019-04-16T14:17:59.762Z,100076.04
2019-04-16T14:22:06.025Z,100087.28
2019-04-16T14:26:12.811Z,100075.80
2019-04-16T14:30:27.574Z,100077.22
2019-04-16T14:35:00.866Z,100078.53
2019-04-16T14:39:36.541Z,100072.64
2019-04-16T14:43:45.982Z,100068.03
2019-04-16T14:47:52.961Z,100066.97
2019-04-16T14:52:02.045Z,100072.00
2019-04-16T14:56:15.632Z,100069.75
2019-04-16T15:00:36.171Z,100072.15
2019-04-16T15:05:00.468Z,100063.17
2019-04-16T15:09:33.103Z,100063.72
2019-04-16T15:14:00.512Z,100070.17
2019-04-16T15:18:26.794Z,100077.66
2019-04-16T15:22:54.639Z,100074.66
2019-04-16T15:27:20.196Z,100072.97
2019-04-16T15:31:41.838Z,100073.34
2019-04-16T15:35:53.489Z,100069.45
2019-04-16T15:40:07.003Z,100073.33
2019-04-16T15:44:25.390Z,100069.50
2019-04-16T15:48:44.443Z,100074.32
2019-04-16T15:53:03.273Z,100070.09
2019-04-16T15:57:31.449Z,100064.03
2019-04-16T16:01:51.948Z,100061.81
2019-04-16T16:06:04.285Z,100061.89
2019-04-16T16:10:19.495Z,100064.98
2019-04-16T16:14:26.257Z,100068.92
2019-04-16T16:18:35.715Z,100058.50
2019-04-16T16:22:41.386Z,100066.00
2019-04-16T16:26:48.107Z,100074.23
2019-04-16T16:30:54.870Z,100072.71
2019-04-16T16:35:01.549Z,100082.80
2019-04-16T16:39:09.638Z,100076.93
2019-04-16T16:43:18.050Z,100085.22
2019-04-16T16:47:28.969Z,100090.12
2019-04-16T16:51:35.948Z,100085.25
2019-04-16T16:55:46.250Z,100097.55
2019-04-16T16:59:57.950Z,100087.49
2019-04-16T17:04:16.426Z,100087.39
2019-04-16T17:08:23.247Z,100099.73
2019-04-16T17:12:30.038Z,100091.19
2019-04-16T17:16:37.235Z,100094.63
2019-04-16T17:20:43.861Z,100102.47
2019-04-16T17:24:50.602Z,100102.55
2019-04-16T17:28:58.281Z,100102.15
2019-04-16T17:33:05.152Z,100109.45
2019-04-16T17:37:11.823Z,100115.09
2019-04-16T17:41:24.385Z,100122.11
2019-04-16T17:46:05.340Z,100126.47
2019-04-16T17:50:40.320Z,100127.03
2019-04-16T17:54:51.975Z,100128.55
2019-04-16T17:59:14.438Z,100138.13
2019-04-16T18:03:37.595Z,100144.83
2019-04-16T18:08:09.510Z,100148.38
2019-04-16T18:12:35.956Z,100154.18
2019-04-16T18:16:54.132Z,100159.81
2019-04-16T18:21:21.679Z,100164.91
2019-04-16T18:25:55.521Z,100172.27
2019-04-16T18:30:38.756Z,100177.94
2019-04-16T18:35:05.863Z,100179.69
2019-04-16T18:39:30.188Z,100176.63
2019-04-16T18:43:54.275Z,100183.86
2019-04-16T18:48:13.735Z,100183.08
2019-04-16T18:52:18.481Z,100195.09
2019-04-16T18:56:25.153Z,100207.02
2019-04-16T19:00:52.741Z,100215.47
2019-04-16T19:04:59.715Z,100219.53
2019-04-16T19:09:08.434Z,100222.38
2019-04-16T19:13:19.939Z,100230.77
2019-04-16T19:17:25.833Z,100235.06
2019-04-16T19:21:32.569Z,100244.44
2019-04-16T19:25:39.250Z,100244.61
2019-04-16T19:29:46.165Z,100252.24
2019-04-16T19:33:53.076Z,100249.15
2019-04-16T19:38:02.348Z,100257.95
2019-04-16T19:42:11.201Z,100261.00
2019-04-16T19:46:17.053Z,100262.51
2019-04-16T19:50:23.749Z,100267.78
2019-04-16T19:54:31.801Z,100263.30
2019-04-16T19:58:38.594Z,100262.94
2019-04-16T20:02:45.360Z,100270.89
2019-04-16T20:06:52.210Z,100269.38
2019-04-16T20:10:58.894Z,100266.75
2019-04-16T20:15:09.350Z,100279.00
2019-04-16T20:19:14.499Z,100283.48
2019-04-16T20:23:21.165Z,100282.13
2019-04-16T20:27:28.171Z,100293.97
2019-04-16T20:31:36.583Z,100289.00
2019-04-16T20:35:43.347Z,100295.06
2019-04-16T20:39:50.014Z,100293.00
2019-04-16T20:43:57.084Z,100301.59
2019-04-16T20:48:03.782Z,100307.16
2019-04-16T20:52:10.495Z,100318.52
2019-04-16T20:56:20.477Z,100327.34
2019-04-16T21:00:28.899Z,100333.61
2019-04-16T21:04:35.527Z,100343.99
2019-04-16T21:08:42.296Z,100348.14
2019-04-16T21:12:48.950Z,100342.09
2019-04-16T21:16:55.696Z,100353.79
2019-04-16T21:21:02.544Z,100352.73
2019-04-16T21:25:13.800Z,100360.84
2019-04-16T21:29:26.325Z,100360.30
2019-04-16T21:33:49.177Z,100364.34
2019-04-16T21:38:17.717Z,100359.41
2019-04-16T21:42:25.466Z,100367.66
2019-04-16T21:46:32.508Z,100378.19
2019-04-16T21:50:39.507Z,100368.47
2019-04-16T21:54:46.304Z,100365.55
2019-04-16T21:58:53.083Z,100360.98
2019-04-16T22:02:59.791Z,100361.16
2019-04-16T22:07:07.973Z,100357.37
2019-04-16T22:11:15.495Z,100360.66
2019-04-16T22:15:25.208Z,100371.48
2019-04-16T22:19:30.890Z,100373.83
2019-04-16T22:23:37.576Z,100377.34
2019-04-16T22:27:44.314Z,100373.09
2019-04-16T22:31:52.815Z,100382.56
2019-04-16T22:35:59.576Z,100396.17
2019-04-16T22:40:28.370Z,100400.32
2019-04-16T22:44:54.398Z,100402.17
2019-04-16T22:49:01.729Z,100403.34
2019-04-16T22:53:08.401Z,100399.39
2019-04-16T22:57:16.313Z,100399.09
2019-04-16T23:01:25.073Z,100397.32
2019-04-16T23:05:32.000Z,100389.30
2019-04-16T23:09:38.796Z,100388.33
2019-04-16T23:13:45.559Z,100385.71
2019-04-16T23:17:55.288Z,100385.48
2019-04-16T23:22:02.090Z,100382.67
2019-04-16T23:26:08.796Z,100394.06
2019-04-16T23:30:15.746Z,100397.02
2019-04-16T23:34:24.070Z,100393.63
2019-04-16T23:38:31.682Z,100394.28
2019-04-16T23:42:41.331Z,100392.55
2019-04-16T23:47:09.225Z,100396.61
2019-04-16T23:51:28.665Z,100397.87
2019-04-16T23:56:10.072Z,100408.73
